»·PEaware :: N653SL KTUS-KSAN

N653SL :: KTUS-KSAN

FLIGHT INFORMATION

Flight Status: Arrived
Operator: Privately registered:
United States
More flights under this callsign
Pilot: David I. (28153)
Aircraft: CESSNA 550 CITATION 2/S2/BRAVO
(C550)
More flights by this aircraft type
Origin: KTUS Tucson Intl
United States
Destination: KSAN San Diego Intl-Lindbergh
United States
More flights between these airports :: More routes between these airports
Route: WLDKT3 GBN J18 HOGGZ LUCKI1
File this flight plan on PilotEdge
Remarks:
Altitude:
(Current/Filed)
26,000ft
Speed:
(Current/Filed)
350kts
Departed: 09-Nov-20 03:54 PM
Arrived: 09-Nov-20 05:04 PM
Distance/Time
Traveled:
318nm/1:10
Distance/Time
To Go:
Arrived

Flight Plot

Page will automatically refresh every two minutes.

Flight plan parsing failed; only flown route is shown


Map Options




Map Legend


Flown Route
Filed Route
Departure Airport
Arrival Airport
Navaid (VOR, NDB)
Fix

Horizontal Profiles

Position Reports

Time Latitude Longitude Heading Altitude Ground
Speed
09-Nov-20 15:01 32.125534 -110.945154 225 2578ft 0kts
09-Nov-20 15:03 32.125534 -110.945154 225 2578ft 0kts
09-Nov-20 15:03 32.125534 -110.945154 225 2578ft 0kts
09-Nov-20 15:05 32.125534 -110.945154 225 2578ft 0kts
09-Nov-20 15:05 32.125534 -110.945154 225 2578ft 0kts
09-Nov-20 15:06 32.125534 -110.945154 225 2578ft 0kts
09-Nov-20 15:07 32.125534 -110.945154 225 2578ft 0kts
09-Nov-20 15:08 32.125534 -110.945154 225 2578ft 0kts
09-Nov-20 15:09 32.125534 -110.945154 225 2578ft 0kts
09-Nov-20 15:10 32.125534 -110.945154 225 2578ft 0kts
09-Nov-20 15:11 32.125534 -110.945154 225 2578ft 0kts
09-Nov-20 15:12 32.125534 -110.945154 225 2578ft 0kts
09-Nov-20 15:13 32.125534 -110.945154 225 2578ft 0kts
09-Nov-20 15:14 32.125534 -110.945154 225 2578ft 0kts
09-Nov-20 15:15 32.125534 -110.945154 225 2578ft 0kts
09-Nov-20 15:16 32.125534 -110.945154 225 2578ft 0kts
09-Nov-20 15:17 32.125534 -110.945154 225 2578ft 0kts
09-Nov-20 15:18 32.125534 -110.945154 225 2578ft 0kts
09-Nov-20 15:19 32.125534 -110.945154 225 2578ft 0kts
09-Nov-20 15:20 32.125534 -110.945154 225 2578ft 0kts
09-Nov-20 15:21 32.125534 -110.945154 225 2578ft 0kts
09-Nov-20 15:22 32.125534 -110.945154 225 2578ft 0kts
09-Nov-20 15:23 32.125534 -110.945154 225 2578ft 0kts
09-Nov-20 15:24 32.125534 -110.945154 225 2578ft 0kts
09-Nov-20 15:25 32.125534 -110.945154 225 2578ft 0kts
09-Nov-20 15:26 32.125534 -110.945154 225 2578ft 0kts
09-Nov-20 15:27 32.125534 -110.945154 225 2578ft 0kts
09-Nov-20 15:28 32.125534 -110.945154 225 2578ft 0kts
09-Nov-20 15:29 32.125534 -110.945154 225 2578ft 0kts
09-Nov-20 15:30 32.125534 -110.945154 225 2578ft 0kts
09-Nov-20 15:31 32.125534 -110.945154 225 2578ft 0kts
09-Nov-20 15:32 32.125534 -110.945154 225 2578ft 0kts
09-Nov-20 15:33 32.125534 -110.945154 225 2578ft 0kts
09-Nov-20 15:34 32.125534 -110.945154 225 2578ft 0kts
09-Nov-20 15:35 32.125534 -110.945154 225 2578ft 0kts
09-Nov-20 15:36 32.125534 -110.945154 225 2578ft 0kts
09-Nov-20 15:37 32.125534 -110.945154 225 2578ft 0kts
09-Nov-20 15:38 32.125534 -110.945154 225 2578ft 0kts
09-Nov-20 15:39 32.125534 -110.945154 225 2578ft 0kts
09-Nov-20 15:40 32.125563 -110.945256 340 2578ft 1kts
09-Nov-20 15:41 32.126133 -110.945265 316 2577ft 4kts
09-Nov-20 15:42 32.125496 -110.946719 224 2578ft 6kts
09-Nov-20 15:43 32.123785 -110.945867 135 2583ft 9kts
09-Nov-20 15:44 32.122160 -110.943958 135 2590ft 10kts
09-Nov-20 15:45 32.119569 -110.940924 135 2599ft 12kts
09-Nov-20 15:46 32.117238 -110.938195 135 2608ft 12kts
09-Nov-20 15:47 32.114609 -110.935114 135 2617ft 14kts
09-Nov-20 15:48 32.111679 -110.931681 135 2626ft 16kts
09-Nov-20 15:49 32.108828 -110.928336 135 2634ft 12kts
09-Nov-20 15:50 32.106415 -110.925511 135 2641ft 11kts
09-Nov-20 15:51 32.104182 -110.922890 135 2647ft 9kts
09-Nov-20 15:52 32.102905 -110.923886 314 2644ft 14kts
09-Nov-20 15:53 32.122670 -110.947240 310 3855ft 140kts
09-Nov-20 15:54 32.149360 -110.979938 309 6615ft 146kts
09-Nov-20 15:55 32.180392 -111.015554 310 8713ft 189kts
09-Nov-20 15:56 32.222106 -111.068894 293 10251ft 246kts
09-Nov-20 15:57 32.237326 -111.153454 278 11767ft 280kts
09-Nov-20 15:58 32.250601 -111.246555 278 13504ft 290kts
09-Nov-20 15:59 32.264154 -111.340080 277 15291ft 287kts
09-Nov-20 16:00 32.277463 -111.432319 277 16887ft 285kts
09-Nov-20 16:01 32.312708 -111.516880 297 18353ft 291kts
09-Nov-20 16:02 32.356782 -111.594922 296 19789ft 286kts
09-Nov-20 16:03 32.399593 -111.670935 295 21227ft 281kts
09-Nov-20 16:04 32.442498 -111.747328 294 22757ft 276kts
09-Nov-20 16:05 32.484184 -111.821683 293 24275ft 268kts
09-Nov-20 16:06 32.524636 -111.893972 292 25789ft 260kts
09-Nov-20 16:07 32.566167 -111.968771 292 26112ft 288kts
09-Nov-20 16:08 32.612135 -112.051204 293 26110ft 310kts
09-Nov-20 16:09 32.660515 -112.138121 293 26107ft 321kts
09-Nov-20 16:10 32.710127 -112.227523 293 26102ft 326kts
09-Nov-20 16:11 32.760009 -112.317659 294 26097ft 328kts
09-Nov-20 16:12 32.810036 -112.408293 294 26095ft 328kts
09-Nov-20 16:13 32.860033 -112.499100 293 26093ft 328kts
09-Nov-20 16:14 32.909903 -112.589905 293 26092ft 328kts
09-Nov-20 16:15 32.950799 -112.684063 274 26113ft 313kts
09-Nov-20 16:16 32.941745 -112.786919 261 26114ft 314kts
09-Nov-20 16:17 32.927418 -112.890021 261 26112ft 317kts
09-Nov-20 16:18 32.913154 -112.994359 262 26110ft 322kts
09-Nov-20 16:19 32.898632 -113.100599 262 26108ft 327kts
09-Nov-20 16:20 32.883868 -113.207916 262 26107ft 330kts
09-Nov-20 16:21 32.868932 -113.315750 262 26105ft 331kts
09-Nov-20 16:22 32.853917 -113.423452 262 26104ft 331kts
09-Nov-20 16:23 32.838732 -113.531617 262 26102ft 331kts
09-Nov-20 16:24 32.823495 -113.639551 262 26105ft 331kts
09-Nov-20 16:25 32.808279 -113.746667 262 26121ft 332kts
09-Nov-20 16:26 32.792756 -113.855203 262 26120ft 333kts
09-Nov-20 16:27 32.777687 -113.963443 264 26119ft 332kts
09-Nov-20 16:28 32.774764 -114.073152 269 26118ft 332kts
09-Nov-20 16:29 32.779253 -114.182754 272 26116ft 332kts
09-Nov-20 16:30 32.783769 -114.292074 272 26115ft 331kts
09-Nov-20 16:31 32.792022 -114.401098 282 26113ft 332kts
09-Nov-20 16:32 32.820280 -114.506012 285 26112ft 333kts
09-Nov-20 16:33 32.849047 -114.610434 285 26115ft 333kts
09-Nov-20 16:34 32.876284 -114.715387 278 26130ft 332kts
09-Nov-20 16:35 32.877365 -114.825166 268 26137ft 332kts
09-Nov-20 16:36 32.874761 -114.934607 268 26144ft 332kts
09-Nov-20 16:37 32.872197 -115.044679 270 26144ft 333kts
09-Nov-20 16:38 32.869552 -115.154917 271 26142ft 336kts
09-Nov-20 16:39 32.866754 -115.266838 272 26138ft 339kts
09-Nov-20 16:40 32.859608 -115.379058 265 26085ft 342kts
09-Nov-20 16:42 32.844088 -115.489945 265 24537ft 337kts
09-Nov-20 16:43 32.826317 -115.598958 263 23085ft 335kts
09-Nov-20 16:44 32.808921 -115.704517 262 21697ft 331kts
09-Nov-20 16:45 32.791372 -115.810936 262 20297ft 326kts
09-Nov-20 16:46 32.780107 -115.916567 267 18897ft 321kts
09-Nov-20 16:47 32.772262 -116.021367 267 17490ft 316kts
09-Nov-20 16:48 32.764486 -116.124139 267 16071ft 310kts
09-Nov-20 16:49 32.756716 -116.225590 267 14553ft 306kts
09-Nov-20 16:50 32.748997 -116.325517 267 13035ft 299kts
09-Nov-20 16:51 32.741894 -116.416489 267 11623ft 268kts
09-Nov-20 16:52 32.734966 -116.505027 266 10101ft 270kts
09-Nov-20 16:53 32.726430 -116.593305 265 8724ft 267kts
09-Nov-20 16:54 32.718418 -116.676836 266 7875ft 256kts
09-Nov-20 16:55 32.711902 -116.762314 266 6876ft 258kts
09-Nov-20 16:56 32.699729 -116.843370 252 5713ft 239kts
09-Nov-20 16:57 32.675965 -116.913487 253 4976ft 215kts
09-Nov-20 16:58 32.683337 -116.980059 284 4713ft 213kts
09-Nov-20 16:59 32.699365 -117.048992 286 3222ft 195kts
09-Nov-20 17:00 32.709916 -117.092176 286 1831ft 93kts
09-Nov-20 17:00 32.715637 -117.116234 285 1349ft 89kts
09-Nov-20 17:02 32.723768 -117.149338 286 676ft 91kts
09-Nov-20 17:02 32.729468 -117.172755 286 230ft 88kts
09-Nov-20 17:04 32.734699 -117.190749 40 22ft 3kts
09-Nov-20 17:04 32.734664 -117.189560 105 22ft 9kts
09-Nov-20 17:05 32.733700 -117.185549 106 22ft 14kts
09-Nov-20 17:06 32.732606 -117.181016 105 22ft 13kts
09-Nov-20 17:07 32.733894 -117.179315 43 22ft 7kts
09-Nov-20 17:08 32.733895 -117.178602 227 22ft 0kts
09-Nov-20 17:09 32.733895 -117.178602 227 22ft 0kts

Navigation Log

Ident Type
Flight plan parsing failed, navigation log unavailable